sensor_id;sensor_type;location;lat;lon;timestamp;pressure;altitude;pressure_sealevel;temperature;humidity
43804;BME280;29430;52.924;-2.388;2024-01-15T00:02:06;98698.03;;;2.20;96.15
43804;BME280;29430;52.924;-2.388;2024-01-15T00:06:59;98690.97;;;2.12;96.59
43804;BME280;29430;52.924;-2.388;2024-01-15T00:11:51;98708.47;;;2.14;97.61
43804;BME280;29430;52.924;-2.388;2024-01-15T00:16:42;98695.84;;;2.08;97.98
43804;BME280;29430;52.924;-2.388;2024-01-15T00:21:34;98706.16;;;2.11;97.98
43804;BME280;29430;52.924;-2.388;2024-01-15T00:26:26;98690.88;;;2.05;99.13
43804;BME280;29430;52.924;-2.388;2024-01-15T00:31:18;98692.91;;;2.03;99.33
43804;BME280;29430;52.924;-2.388;2024-01-15T00:36:10;98686.09;;;2.01;100.00
43804;BME280;29430;52.924;-2.388;2024-01-15T00:41:02;98679.28;;;1.98;100.00
43804;BME280;29430;52.924;-2.388;2024-01-15T00:45:54;98678.25;;;1.99;100.00
43804;BME280;29430;52.924;-2.388;2024-01-15T00:50:46;98670.22;;;1.99;100.00
43804;BME280;29430;52.924;-2.388;2024-01-15T00:55:37;98682.78;;;1.99;100.00
43804;BME280;29430;52.924;-2.388;2024-01-15T01:00:29;98681.97;;;1.98;100.00
43804;BME280;29430;52.924;-2.388;2024-01-15T01:05:21;98679.09;;;2.00;100.00
43804;BME280;29430;52.924;-2.388;2024-01-15T01:10:13;98677.63;;;1.97;100.00
43804;BME280;29430;52.924;-2.388;2024-01-15T01:15:05;98660.75;;;1.96;100.00
43804;BME280;29430;52.924;-2.388;2024-01-15T01:19:57;98674.94;;;1.97;100.00
43804;BME280;29430;52.924;-2.388;2024-01-15T01:24:49;98656.59;;;1.94;100.00
43804;BME280;29430;52.924;-2.388;2024-01-15T01:29:40;98659.66;;;1.91;100.00
43804;BME280;29430;52.924;-2.388;2024-01-15T01:34:32;98668.88;;;1.88;100.00
43804;BME280;29430;52.924;-2.388;2024-01-15T01:39:25;98669.25;;;1.85;100.00
43804;BME280;29430;52.924;-2.388;2024-01-15T01:44:17;98682.16;;;1.82;100.00
43804;BME280;29430;52.924;-2.388;2024-01-15T01:49:08;98677.00;;;1.80;100.00
43804;BME280;29430;52.924;-2.388;2024-01-15T01:54:01;98676.28;;;1.71;100.00
43804;BME280;29430;52.924;-2.388;2024-01-15T01:58:53;98669.19;;;1.64;100.00
43804;BME280;29430;52.924;-2.388;2024-01-15T02:03:45;98666.06;;;1.60;100.00
43804;BME280;29430;52.924;-2.388;2024-01-15T02:08:37;98663.50;;;1.52;100.00
43804;BME280;29430;52.924;-2.388;2024-01-15T02:13:29;98669.59;;;1.46;100.00
43804;BME280;29430;52.924;-2.388;2024-01-15T02:18:21;98664.97;;;1.39;100.00
43804;BME280;29430;52.924;-2.388;2024-01-15T02:23:14;98676.22;;;1.35;100.00
43804;BME280;29430;52.924;-2.388;2024-01-15T02:28:07;98662.75;;;1.28;100.00
43804;BME280;29430;52.924;-2.388;2024-01-15T02:33:00;98673.53;;;1.20;100.00
43804;BME280;29430;52.924;-2.388;2024-01-15T02:37:52;98667.06;;;1.14;99.59
43804;BME280;29430;52.924;-2.388;2024-01-15T02:42:44;98659.16;;;1.06;98.83
43804;BME280;29430;52.924;-2.388;2024-01-15T02:47:35;98666.03;;;1.00;98.57
43804;BME280;29430;52.924;-2.388;2024-01-15T02:52:27;98668.16;;;0.90;99.10
43804;BME280;29430;52.924;-2.388;2024-01-15T02:57:19;98663.06;;;0.80;99.43
43804;BME280;29430;52.924;-2.388;2024-01-15T03:02:10;98662.97;;;0.74;100.00
43804;BME280;29430;52.924;-2.388;2024-01-15T03:07:02;98655.84;;;0.66;100.00
43804;BME280;29430;52.924;-2.388;2024-01-15T03:11:54;98648.56;;;0.60;100.00
43804;BME280;29430;52.924;-2.388;2024-01-15T03:16:46;98646.16;;;0.50;100.00
43804;BME280;29430;52.924;-2.388;2024-01-15T03:21:37;98638.88;;;0.44;100.00
43804;BME280;29430;52.924;-2.388;2024-01-15T03:26:29;98640.41;;;0.38;100.00
43804;BME280;29430;52.924;-2.388;2024-01-15T03:31:21;98641.59;;;0.35;100.00
43804;BME280;29430;52.924;-2.388;2024-01-15T03:36:13;98640.50;;;0.30;100.00
43804;BME280;29430;52.924;-2.388;2024-01-15T03:41:04;98639.63;;;0.29;100.00
43804;BME280;29430;52.924;-2.388;2024-01-15T03:45:56;98640.16;;;0.25;100.00
43804;BME280;29430;52.924;-2.388;2024-01-15T03:50:48;98636.88;;;0.23;100.00
43804;BME280;29430;52.924;-2.388;2024-01-15T03:55:40;98635.09;;;0.15;98.73
43804;BME280;29430;52.924;-2.388;2024-01-15T04:00:31;98632.78;;;0.12;97.62
43804;BME280;29430;52.924;-2.388;2024-01-15T04:05:23;98630.66;;;0.07;96.29
43804;BME280;29430;52.924;-2.388;2024-01-15T04:10:15;98627.88;;;0.01;95.99
43804;BME280;29430;52.924;-2.388;2024-01-15T04:15:06;98617.56;;;-0.03;95.70
43804;BME280;29430;52.924;-2.388;2024-01-15T04:19:58;98616.78;;;-0.11;94.97
43804;BME280;29430;52.924;-2.388;2024-01-15T04:24:50;98625.78;;;-0.12;95.83
43804;BME280;29430;52.924;-2.388;2024-01-15T04:29:41;98613.16;;;-0.19;95.24
43804;BME280;29430;52.924;-2.388;2024-01-15T04:34:33;98605.34;;;-0.20;96.41
43804;BME280;29430;52.924;-2.388;2024-01-15T04:39:25;98611.50;;;-0.20;96.80
43804;BME280;29430;52.924;-2.388;2024-01-15T04:44:17;98614.34;;;-0.21;97.42
43804;BME280;29430;52.924;-2.388;2024-01-15T04:49:09;98614.00;;;-0.18;97.43
43804;BME280;29430;52.924;-2.388;2024-01-15T04:54:01;98616.47;;;-0.16;97.82
43804;BME280;29430;52.924;-2.388;2024-01-15T04:58:53;98605.66;;;-0.15;98.41
43804;BME280;29430;52.924;-2.388;2024-01-15T05:03:44;98601.63;;;-0.11;99.03
43804;BME280;29430;52.924;-2.388;2024-01-15T05:08:36;98601.09;;;-0.06;99.25
43804;BME280;29430;52.924;-2.388;2024-01-15T05:13:28;98614.06;;;-0.03;99.34
43804;BME280;29430;52.924;-2.388;2024-01-15T05:18:19;98617.72;;;-0.04;99.31
43804;BME280;29430;52.924;-2.388;2024-01-15T05:23:11;98615.53;;;-0.01;99.40
43804;BME280;29430;52.924;-2.388;2024-01-15T05:28:05;98616.16;;;0.02;99.60
43804;BME280;29430;52.924;-2.388;2024-01-15T05:32:56;98614.19;;;0.04;99.25
43804;BME280;29430;52.924;-2.388;2024-01-15T05:37:49;98625.66;;;0.04;99.46
43804;BME280;29430;52.924;-2.388;2024-01-15T05:42:41;98627.63;;;0.10;99.89
43804;BME280;29430;52.924;-2.388;2024-01-15T05:47:33;98624.59;;;0.13;99.11
43804;BME280;29430;52.924;-2.388;2024-01-15T05:52:25;98622.75;;;0.14;98.63
43804;BME280;29430;52.924;-2.388;2024-01-15T05:57:17;98615.78;;;0.13;98.10
43804;BME280;29430;52.924;-2.388;2024-01-15T06:02:09;98631.97;;;0.11;98.23
43804;BME280;29430;52.924;-2.388;2024-01-15T06:07:01;98627.44;;;0.12;98.17
43804;BME280;29430;52.924;-2.388;2024-01-15T06:11:53;98617.41;;;0.14;97.55
43804;BME280;29430;52.924;-2.388;2024-01-15T06:16:45;98616.25;;;0.16;97.53
43804;BME280;29430;52.924;-2.388;2024-01-15T06:21:36;98610.09;;;0.16;97.12
43804;BME280;29430;52.924;-2.388;2024-01-15T06:26:28;98624.06;;;0.18;96.58
43804;BME280;29430;52.924;-2.388;2024-01-15T06:31:20;98629.13;;;0.13;95.80
43804;BME280;29430;52.924;-2.388;2024-01-15T06:36:12;98633.59;;;0.12;95.81
43804;BME280;29430;52.924;-2.388;2024-01-15T06:41:03;98640.78;;;0.12;96.02
43804;BME280;29430;52.924;-2.388;2024-01-15T06:45:55;98638.28;;;0.10;95.48
43804;BME280;29430;52.924;-2.388;2024-01-15T06:50:47;98646.28;;;0.10;95.33
43804;BME280;29430;52.924;-2.388;2024-01-15T06:55:39;98645.63;;;0.08;95.59
43804;BME280;29430;52.924;-2.388;2024-01-15T07:00:30;98647.63;;;0.06;95.44
43804;BME280;29430;52.924;-2.388;2024-01-15T07:05:23;98644.69;;;0.01;95.13
43804;BME280;29430;52.924;-2.388;2024-01-15T07:10:15;98646.06;;;-0.03;95.20
43804;BME280;29430;52.924;-2.388;2024-01-15T07:15:07;98639.41;;;-0.07;94.35
43804;BME280;29430;52.924;-2.388;2024-01-15T07:19:59;98641.09;;;-0.14;94.54
43804;BME280;29430;52.924;-2.388;2024-01-15T07:24:52;98661.59;;;-0.15;94.17
43804;BME280;29430;52.924;-2.388;2024-01-15T07:29:43;98673.59;;;-0.19;93.74
43804;BME280;29430;52.924;-2.388;2024-01-15T07:34:35;98680.66;;;-0.26;93.38
43804;BME280;29430;52.924;-2.388;2024-01-15T07:39:27;98696.50;;;-0.33;93.38
43804;BME280;29430;52.924;-2.388;2024-01-15T07:44:20;98691.69;;;-0.38;93.82
43804;BME280;29430;52.924;-2.388;2024-01-15T07:49:12;98695.03;;;-0.44;93.55
43804;BME280;29430;52.924;-2.388;2024-01-15T07:54:04;98693.22;;;-0.51;94.21
43804;BME280;29430;52.924;-2.388;2024-01-15T07:58:56;98695.41;;;-0.55;94.13
43804;BME280;29430;52.924;-2.388;2024-01-15T08:03:47;98701.09;;;-0.58;94.34
43804;BME280;29430;52.924;-2.388;2024-01-15T08:08:39;98718.22;;;-0.61;94.57
43804;BME280;29430;52.924;-2.388;2024-01-15T08:13:31;98730.25;;;-0.65;94.61
43804;BME280;29430;52.924;-2.388;2024-01-15T08:18:23;98741.06;;;-0.66;95.33
43804;BME280;29430;52.924;-2.388;2024-01-15T08:23:15;98752.88;;;-0.69;95.16
43804;BME280;29430;52.924;-2.388;2024-01-15T08:28:07;98762.19;;;-0.73;94.86
43804;BME280;29430;52.924;-2.388;2024-01-15T08:32:59;98761.88;;;-0.78;94.36
43804;BME280;29430;52.924;-2.388;2024-01-15T08:38:01;98763.03;;;-0.81;94.14
43804;BME280;29430;52.924;-2.388;2024-01-15T08:42:54;98770.69;;;-0.78;94.05
43804;BME280;29430;52.924;-2.388;2024-01-15T08:47:45;98783.00;;;-0.77;93.69
43804;BME280;29430;52.924;-2.388;2024-01-15T08:52:37;98786.00;;;-0.80;92.67
43804;BME280;29430;52.924;-2.388;2024-01-15T08:57:29;98790.34;;;-0.79;92.47
43804;BME280;29430;52.924;-2.388;2024-01-15T09:02:20;98790.50;;;-0.80;93.19
43804;BME280;29430;52.924;-2.388;2024-01-15T09:07:13;98802.13;;;-0.81;91.82
43804;BME280;29430;52.924;-2.388;2024-01-15T09:12:05;98798.31;;;-0.79;91.93
43804;BME280;29430;52.924;-2.388;2024-01-15T09:16:56;98799.97;;;-0.78;90.77
43804;BME280;29430;52.924;-2.388;2024-01-15T09:21:48;98809.78;;;-0.70;89.78
43804;BME280;29430;52.924;-2.388;2024-01-15T09:26:40;98790.31;;;-0.54;88.91
43804;BME280;29430;52.924;-2.388;2024-01-15T09:31:31;98806.19;;;-0.21;88.53
43804;BME280;29430;52.924;-2.388;2024-01-15T09:36:23;98801.38;;;0.14;86.38
43804;BME280;29430;52.924;-2.388;2024-01-15T09:41:15;98808.72;;;0.51;85.57
43804;BME280;29430;52.924;-2.388;2024-01-15T09:46:07;98819.66;;;0.88;84.60
43804;BME280;29430;52.924;-2.388;2024-01-15T09:51:01;98815.06;;;1.43;83.62
43804;BME280;29430;52.924;-2.388;2024-01-15T09:55:53;98819.72;;;2.09;83.10
43804;BME280;29430;52.924;-2.388;2024-01-15T10:00:47;98825.44;;;2.72;80.60
43804;BME280;29430;52.924;-2.388;2024-01-15T10:05:42;98826.59;;;3.28;77.93
43804;BME280;29430;52.924;-2.388;2024-01-15T10:10:36;98821.78;;;3.73;75.90
43804;BME280;29430;52.924;-2.388;2024-01-15T10:15:28;98818.28;;;4.07;71.39
43804;BME280;29430;52.924;-2.388;2024-01-15T10:20:20;98822.97;;;4.34;69.26
43804;BME280;29430;52.924;-2.388;2024-01-15T10:25:14;98821.63;;;4.58;68.30
43804;BME280;29430;52.924;-2.388;2024-01-15T10:30:06;98823.97;;;4.88;66.04
43804;BME280;29430;52.924;-2.388;2024-01-15T10:34:58;98840.59;;;5.25;65.02
43804;BME280;29430;52.924;-2.388;2024-01-15T10:39:50;98848.69;;;5.58;63.54
43804;BME280;29430;52.924;-2.388;2024-01-15T10:44:42;98839.34;;;5.81;61.72
43804;BME280;29430;52.924;-2.388;2024-01-15T10:49:40;98844.53;;;6.09;60.79
43804;BME280;29430;52.924;-2.388;2024-01-15T10:54:33;98841.78;;;6.22;55.12
43804;BME280;29430;52.924;-2.388;2024-01-15T10:59:25;98850.47;;;6.31;56.23
43804;BME280;29430;52.924;-2.388;2024-01-15T11:04:17;98841.53;;;6.44;56.10
43804;BME280;29430;52.924;-2.388;2024-01-15T11:09:10;98834.66;;;6.55;54.73
43804;BME280;29430;52.924;-2.388;2024-01-15T11:14:03;98848.06;;;6.68;54.60
43804;BME280;29430;52.924;-2.388;2024-01-15T11:23:58;98847.34;;;6.93;54.18
43804;BME280;29430;52.924;-2.388;2024-01-15T11:28:51;98849.75;;;7.01;53.60
43804;BME280;29430;52.924;-2.388;2024-01-15T11:33:49;98854.81;;;6.91;50.93
43804;BME280;29430;52.924;-2.388;2024-01-15T11:38:41;98839.94;;;6.75;52.80
43804;BME280;29430;52.924;-2.388;2024-01-15T11:43:33;98832.94;;;6.67;51.16
43804;BME280;29430;52.924;-2.388;2024-01-15T11:48:38;98839.81;;;6.63;50.27
43804;BME280;29430;52.924;-2.388;2024-01-15T11:53:43;98829.75;;;6.38;49.09
43804;BME280;29430;52.924;-2.388;2024-01-15T11:58:36;98821.03;;;6.36;51.49
43804;BME280;29430;52.924;-2.388;2024-01-15T12:03:32;98826.16;;;6.51;50.65
43804;BME280;29430;52.924;-2.388;2024-01-15T12:08:25;98829.69;;;6.58;49.23
43804;BME280;29430;52.924;-2.388;2024-01-15T12:13:19;98830.66;;;6.64;48.92
43804;BME280;29430;52.924;-2.388;2024-01-15T12:18:13;98831.91;;;6.68;48.59
43804;BME280;29430;52.924;-2.388;2024-01-15T12:23:06;98832.34;;;6.65;47.13
43804;BME280;29430;52.924;-2.388;2024-01-15T12:28:01;98822.09;;;6.35;46.82
43804;BME280;29430;52.924;-2.388;2024-01-15T12:32:53;98827.13;;;6.18;47.13
43804;BME280;29430;52.924;-2.388;2024-01-15T12:37:47;98829.84;;;6.05;47.52
43804;BME280;29430;52.924;-2.388;2024-01-15T12:42:39;98828.56;;;5.94;48.21
43804;BME280;29430;52.924;-2.388;2024-01-15T12:47:31;98828.59;;;5.81;49.30
43804;BME280;29430;52.924;-2.388;2024-01-15T12:52:23;98828.59;;;5.74;49.22
43804;BME280;29430;52.924;-2.388;2024-01-15T12:57:16;98837.31;;;5.63;50.16
43804;BME280;29430;52.924;-2.388;2024-01-15T13:02:07;98844.56;;;5.49;51.01
43804;BME280;29430;52.924;-2.388;2024-01-15T13:06:59;98836.25;;;5.37;50.37
43804;BME280;29430;52.924;-2.388;2024-01-15T13:11:51;98837.09;;;5.24;51.21
43804;BME280;29430;52.924;-2.388;2024-01-15T13:16:44;98839.75;;;5.04;52.23
43804;BME280;29430;52.924;-2.388;2024-01-15T13:21:37;98845.31;;;4.96;52.11
43804;BME280;29430;52.924;-2.388;2024-01-15T13:26:28;98822.50;;;4.78;51.05
43804;BME280;29430;52.924;-2.388;2024-01-15T13:31:20;98811.28;;;4.55;50.87
43804;BME280;29430;52.924;-2.388;2024-01-15T13:36:12;98814.13;;;4.40;51.21
43804;BME280;29430;52.924;-2.388;2024-01-15T13:41:04;98818.00;;;4.30;50.86
43804;BME280;29430;52.924;-2.388;2024-01-15T13:45:56;98815.41;;;4.09;50.31
43804;BME280;29430;52.924;-2.388;2024-01-15T13:50:48;98816.41;;;4.01;50.52
43804;BME280;29430;52.924;-2.388;2024-01-15T13:55:42;98826.69;;;3.91;50.50
43804;BME280;29430;52.924;-2.388;2024-01-15T14:00:34;98830.06;;;3.78;50.24
43804;BME280;29430;52.924;-2.388;2024-01-15T14:05:26;98823.41;;;3.67;48.66
43804;BME280;29430;52.924;-2.388;2024-01-15T14:10:18;98828.03;;;3.52;48.69
43804;BME280;29430;52.924;-2.388;2024-01-15T14:15:10;98826.50;;;3.43;48.95
43804;BME280;29430;52.924;-2.388;2024-01-15T14:20:02;98821.69;;;3.31;49.35
43804;BME280;29430;52.924;-2.388;2024-01-15T14:24:57;98826.59;;;3.28;49.98
43804;BME280;29430;52.924;-2.388;2024-01-15T14:29:48;98822.66;;;3.23;50.56
43804;BME280;29430;52.924;-2.388;2024-01-15T14:34:40;98823.47;;;3.24;50.59
43804;BME280;29430;52.924;-2.388;2024-01-15T14:39:32;98808.63;;;3.21;51.05
43804;BME280;29430;52.924;-2.388;2024-01-15T14:44:26;98803.25;;;3.21;51.26
43804;BME280;29430;52.924;-2.388;2024-01-15T14:49:20;98793.56;;;3.20;51.42
43804;BME280;29430;52.924;-2.388;2024-01-15T14:54:12;98794.50;;;3.13;51.28
43804;BME280;29430;52.924;-2.388;2024-01-15T14:59:04;98801.66;;;3.05;51.74
43804;BME280;29430;52.924;-2.388;2024-01-15T15:03:56;98811.31;;;3.00;50.50
43804;BME280;29430;52.924;-2.388;2024-01-15T15:08:47;98812.44;;;2.91;51.23
43804;BME280;29430;52.924;-2.388;2024-01-15T15:13:39;98816.91;;;2.83;51.73
43804;BME280;29430;52.924;-2.388;2024-01-15T15:18:36;98830.72;;;2.87;51.78
43804;BME280;29430;52.924;-2.388;2024-01-15T15:23:28;98826.78;;;2.83;51.79
43804;BME280;29430;52.924;-2.388;2024-01-15T15:28:20;98829.56;;;2.75;51.88
43804;BME280;29430;52.924;-2.388;2024-01-15T15:33:12;98832.19;;;2.68;52.11
43804;BME280;29430;52.924;-2.388;2024-01-15T15:38:04;98825.09;;;2.60;52.11
43804;BME280;29430;52.924;-2.388;2024-01-15T15:42:56;98827.50;;;2.55;52.76
43804;BME280;29430;52.924;-2.388;2024-01-15T15:47:48;98820.59;;;2.46;52.85
43804;BME280;29430;52.924;-2.388;2024-01-15T15:52:40;98822.91;;;2.34;52.35
43804;BME280;29430;52.924;-2.388;2024-01-15T15:57:32;98827.53;;;2.25;53.52
43804;BME280;29430;52.924;-2.388;2024-01-15T16:02:24;98827.84;;;2.15;53.71
43804;BME280;29430;52.924;-2.388;2024-01-15T16:07:15;98839.63;;;2.06;54.16
43804;BME280;29430;52.924;-2.388;2024-01-15T16:12:08;98821.38;;;1.95;54.94
43804;BME280;29430;52.924;-2.388;2024-01-15T16:17:00;98819.91;;;1.92;55.00
43804;BME280;29430;52.924;-2.388;2024-01-15T16:22:12;98811.50;;;1.81;54.88
43804;BME280;29430;52.924;-2.388;2024-01-15T16:27:24;98832.72;;;1.67;55.23
43804;BME280;29430;52.924;-2.388;2024-01-15T16:32:17;98829.19;;;1.52;55.71
43804;BME280;29430;52.924;-2.388;2024-01-15T16:37:08;98836.44;;;1.43;56.89
43804;BME280;29430;52.924;-2.388;2024-01-15T16:42:01;98844.63;;;1.41;57.25
43804;BME280;29430;52.924;-2.388;2024-01-15T16:46:52;98843.13;;;1.39;57.43
43804;BME280;29430;52.924;-2.388;2024-01-15T16:51:47;98851.31;;;1.37;58.12
43804;BME280;29430;52.924;-2.388;2024-01-15T16:56:39;98850.88;;;1.34;58.26
43804;BME280;29430;52.924;-2.388;2024-01-15T17:01:31;98848.72;;;1.29;59.26
43804;BME280;29430;52.924;-2.388;2024-01-15T17:06:23;98845.09;;;1.22;58.77
43804;BME280;29430;52.924;-2.388;2024-01-15T17:11:15;98863.53;;;1.17;59.53
43804;BME280;29430;52.924;-2.388;2024-01-15T17:16:07;98859.72;;;1.11;59.79
43804;BME280;29430;52.924;-2.388;2024-01-15T17:21:00;98871.94;;;1.05;60.18
43804;BME280;29430;52.924;-2.388;2024-01-15T17:25:52;98868.31;;;0.98;60.44
43804;BME280;29430;52.924;-2.388;2024-01-15T17:30:44;98868.66;;;0.95;61.10
43804;BME280;29430;52.924;-2.388;2024-01-15T17:35:38;98871.69;;;0.92;61.26
43804;BME280;29430;52.924;-2.388;2024-01-15T17:40:30;98861.00;;;0.92;61.49
43804;BME280;29430;52.924;-2.388;2024-01-15T17:45:22;98863.41;;;0.87;61.07
43804;BME280;29430;52.924;-2.388;2024-01-15T17:50:14;98865.09;;;0.80;60.84
43804;BME280;29430;52.924;-2.388;2024-01-15T17:55:07;98878.84;;;0.68;61.85
43804;BME280;29430;52.924;-2.388;2024-01-15T18:00:00;98895.72;;;0.61;61.53
43804;BME280;29430;52.924;-2.388;2024-01-15T18:04:53;98880.75;;;0.51;62.10
43804;BME280;29430;52.924;-2.388;2024-01-15T18:09:45;98880.75;;;0.51;62.58
43804;BME280;29430;52.924;-2.388;2024-01-15T18:14:37;98879.91;;;0.51;62.32
43804;BME280;29430;52.924;-2.388;2024-01-15T18:19:30;98883.63;;;0.42;62.43
43804;BME280;29430;52.924;-2.388;2024-01-15T18:24:23;98886.84;;;0.29;63.51
43804;BME280;29430;52.924;-2.388;2024-01-15T18:29:15;98893.00;;;0.29;63.88
43804;BME280;29430;52.924;-2.388;2024-01-15T18:34:07;98894.38;;;0.17;64.01
43804;BME280;29430;52.924;-2.388;2024-01-15T18:39:00;98883.91;;;0.07;65.14
43804;BME280;29430;52.924;-2.388;2024-01-15T18:43:58;98877.41;;;0.02;65.85
43804;BME280;29430;52.924;-2.388;2024-01-15T18:48:50;98889.63;;;-0.04;66.29
43804;BME280;29430;52.924;-2.388;2024-01-15T18:53:42;98895.09;;;-0.06;66.43
43804;BME280;29430;52.924;-2.388;2024-01-15T18:58:34;98900.28;;;-0.04;66.76
43804;BME280;29430;52.924;-2.388;2024-01-15T19:03:32;98895.78;;;-0.12;66.28
43804;BME280;29430;52.924;-2.388;2024-01-15T19:08:24;98876.66;;;-0.24;67.05
43804;BME280;29430;52.924;-2.388;2024-01-15T19:13:16;98895.47;;;-0.17;67.18
43804;BME280;29430;52.924;-2.388;2024-01-15T19:18:08;98902.47;;;-0.24;66.88
43804;BME280;29430;52.924;-2.388;2024-01-15T19:23:02;98912.66;;;-0.28;66.94
43804;BME280;29430;52.924;-2.388;2024-01-15T19:27:56;98897.81;;;-0.30;67.62
43804;BME280;29430;52.924;-2.388;2024-01-15T19:32:48;98892.47;;;-0.30;67.71
43804;BME280;29430;52.924;-2.388;2024-01-15T19:37:40;98897.00;;;-0.31;68.26
43804;BME280;29430;52.924;-2.388;2024-01-15T19:42:33;98902.97;;;-0.29;69.06
43804;BME280;29430;52.924;-2.388;2024-01-15T19:47:25;98918.78;;;-0.27;68.98
43804;BME280;29430;52.924;-2.388;2024-01-15T19:52:17;98922.28;;;-0.35;69.50
43804;BME280;29430;52.924;-2.388;2024-01-15T19:57:10;98908.13;;;-0.44;70.13
43804;BME280;29430;52.924;-2.388;2024-01-15T20:02:02;98904.66;;;-0.44;70.10
43804;BME280;29430;52.924;-2.388;2024-01-15T20:06:54;98896.16;;;-0.40;71.14
43804;BME280;29430;52.924;-2.388;2024-01-15T20:11:47;98914.31;;;-0.35;71.46
43804;BME280;29430;52.924;-2.388;2024-01-15T20:16:39;98907.81;;;-0.41;70.68
43804;BME280;29430;52.924;-2.388;2024-01-15T20:21:32;98907.81;;;-0.49;70.48
43804;BME280;29430;52.924;-2.388;2024-01-15T20:26:27;98901.13;;;-0.53;70.30
43804;BME280;29430;52.924;-2.388;2024-01-15T20:31:19;98881.69;;;-0.53;70.34
43804;BME280;29430;52.924;-2.388;2024-01-15T20:36:11;98900.97;;;-0.51;70.54
43804;BME280;29430;52.924;-2.388;2024-01-15T20:41:06;98902.50;;;-0.57;71.31
43804;BME280;29430;52.924;-2.388;2024-01-15T20:46:00;98905.50;;;-0.60;71.30
43804;BME280;29430;52.924;-2.388;2024-01-15T20:50:52;98898.66;;;-0.63;71.83
43804;BME280;29430;52.924;-2.388;2024-01-15T20:55:44;98903.47;;;-0.58;71.93
43804;BME280;29430;52.924;-2.388;2024-01-15T21:00:36;98899.66;;;-0.56;72.32
43804;BME280;29430;52.924;-2.388;2024-01-15T21:05:28;98903.81;;;-0.53;72.62
43804;BME280;29430;52.924;-2.388;2024-01-15T21:10:21;98915.47;;;-0.54;72.95
43804;BME280;29430;52.924;-2.388;2024-01-15T21:15:13;98907.66;;;-0.56;73.01
43804;BME280;29430;52.924;-2.388;2024-01-15T21:20:06;98898.16;;;-0.58;73.28
43804;BME280;29430;52.924;-2.388;2024-01-15T21:25:03;98894.16;;;-0.62;73.31
43804;BME280;29430;52.924;-2.388;2024-01-15T21:29:55;98888.81;;;-0.62;73.70
43804;BME280;29430;52.924;-2.388;2024-01-15T21:34:46;98900.16;;;-0.60;73.96
43804;BME280;29430;52.924;-2.388;2024-01-15T21:39:38;98896.66;;;-0.61;74.49
43804;BME280;29430;52.924;-2.388;2024-01-15T21:44:30;98896.31;;;-0.58;74.25
43804;BME280;29430;52.924;-2.388;2024-01-15T21:49:21;98895.81;;;-0.61;74.67
43804;BME280;29430;52.924;-2.388;2024-01-15T21:54:13;98892.81;;;-0.75;75.02
43804;BME280;29430;52.924;-2.388;2024-01-15T21:59:05;98895.31;;;-0.81;75.84
43804;BME280;29430;52.924;-2.388;2024-01-15T22:03:57;98897.16;;;-0.82;76.69
43804;BME280;29430;52.924;-2.388;2024-01-15T22:08:49;98892.31;;;-0.78;77.00
43804;BME280;29430;52.924;-2.388;2024-01-15T22:13:42;98895.31;;;-0.73;76.81
43804;BME280;29430;52.924;-2.388;2024-01-15T22:18:33;98883.31;;;-0.85;77.04
43804;BME280;29430;52.924;-2.388;2024-01-15T22:23:27;98874.16;;;-0.99;77.55
43804;BME280;29430;52.924;-2.388;2024-01-15T22:28:18;98876.84;;;-0.91;78.14
43804;BME280;29430;52.924;-2.388;2024-01-15T22:33:10;98884.66;;;-0.81;78.65
43804;BME280;29430;52.924;-2.388;2024-01-15T22:38:02;98876.34;;;-0.78;78.25
43804;BME280;29430;52.924;-2.388;2024-01-15T22:42:54;98888.19;;;-0.73;78.74
43804;BME280;29430;52.924;-2.388;2024-01-15T22:47:46;98884.50;;;-0.80;78.42
43804;BME280;29430;52.924;-2.388;2024-01-15T22:52:38;98870.66;;;-0.92;78.39
43804;BME280;29430;52.924;-2.388;2024-01-15T22:57:30;98872.03;;;-0.96;79.68
43804;BME280;29430;52.924;-2.388;2024-01-15T23:02:22;98869.84;;;-0.92;80.31
43804;BME280;29430;52.924;-2.388;2024-01-15T23:07:14;98873.34;;;-0.83;80.58
43804;BME280;29430;52.924;-2.388;2024-01-15T23:12:07;98869.88;;;-0.76;80.90
43804;BME280;29430;52.924;-2.388;2024-01-15T23:16:58;98873.69;;;-0.70;80.18
43804;BME280;29430;52.924;-2.388;2024-01-15T23:21:51;98863.22;;;-0.63;80.35
43804;BME280;29430;52.924;-2.388;2024-01-15T23:26:43;98865.38;;;-0.59;80.08
43804;BME280;29430;52.924;-2.388;2024-01-15T23:31:44;98850.53;;;-0.53;80.09
43804;BME280;29430;52.924;-2.388;2024-01-15T23:36:36;98851.56;;;-0.54;78.80
43804;BME280;29430;52.924;-2.388;2024-01-15T23:41:28;98846.41;;;-0.56;79.44
43804;BME280;29430;52.924;-2.388;2024-01-15T23:46:21;98842.88;;;-0.56;79.23
43804;BME280;29430;52.924;-2.388;2024-01-15T23:51:13;98839.41;;;-0.57;79.39
43804;BME280;29430;52.924;-2.388;2024-01-15T23:56:05;98826.25;;;-0.58;79.12
